sensor_id;sensor_type;location;lat;lon;timestamp;P1;durP1;ratioP1;P2;durP2;ratioP2
26965;SDS011;14522;52.068;4.414;2023-07-16T00:00:41;7.53;;;2.03;;
26965;SDS011;14522;52.068;4.414;2023-07-16T00:03:08;8.40;;;1.95;;
26965;SDS011;14522;52.068;4.414;2023-07-16T00:05:36;9.57;;;3.00;;
26965;SDS011;14522;52.068;4.414;2023-07-16T00:08:02;8.57;;;1.98;;
26965;SDS011;14522;52.068;4.414;2023-07-16T00:10:28;10.30;;;2.60;;
26965;SDS011;14522;52.068;4.414;2023-07-16T00:12:55;9.90;;;2.50;;
26965;SDS011;14522;52.068;4.414;2023-07-16T00:15:22;6.90;;;2.15;;
26965;SDS011;14522;52.068;4.414;2023-07-16T00:17:49;7.15;;;1.95;;
26965;SDS011;14522;52.068;4.414;2023-07-16T00:20:15;9.63;;;2.30;;
26965;SDS011;14522;52.068;4.414;2023-07-16T00:22:42;8.65;;;2.67;;
26965;SDS011;14522;52.068;4.414;2023-07-16T00:25:08;9.95;;;2.20;;
26965;SDS011;14522;52.068;4.414;2023-07-16T00:27:35;6.25;;;1.95;;
26965;SDS011;14522;52.068;4.414;2023-07-16T00:30:01;9.07;;;2.25;;
26965;SDS011;14522;52.068;4.414;2023-07-16T00:32:28;6.68;;;2.25;;
26965;SDS011;14522;52.068;4.414;2023-07-16T00:34:54;8.43;;;2.30;;
26965;SDS011;14522;52.068;4.414;2023-07-16T00:37:21;6.55;;;2.50;;
26965;SDS011;14522;52.068;4.414;2023-07-16T00:39:47;5.90;;;2.80;;
26965;SDS011;14522;52.068;4.414;2023-07-16T00:42:14;13.68;;;3.15;;
26965;SDS011;14522;52.068;4.414;2023-07-16T00:44:40;5.80;;;2.03;;
26965;SDS011;14522;52.068;4.414;2023-07-16T00:47:07;4.45;;;1.85;;
26965;SDS011;14522;52.068;4.414;2023-07-16T00:49:34;8.05;;;2.25;;
26965;SDS011;14522;52.068;4.414;2023-07-16T00:52:00;7.57;;;2.60;;
26965;SDS011;14522;52.068;4.414;2023-07-16T00:54:29;12.52;;;2.70;;
26965;SDS011;14522;52.068;4.414;2023-07-16T00:56:55;11.43;;;2.53;;
26965;SDS011;14522;52.068;4.414;2023-07-16T00:59:22;10.25;;;2.88;;
26965;SDS011;14522;52.068;4.414;2023-07-16T01:01:48;6.65;;;2.42;;
26965;SDS011;14522;52.068;4.414;2023-07-16T01:04:15;11.50;;;3.55;;
26965;SDS011;14522;52.068;4.414;2023-07-16T01:06:50;10.38;;;3.10;;
26965;SDS011;14522;52.068;4.414;2023-07-16T01:09:19;15.52;;;2.45;;
26965;SDS011;14522;52.068;4.414;2023-07-16T01:11:48;6.85;;;2.92;;
26965;SDS011;14522;52.068;4.414;2023-07-16T01:14:16;4.40;;;2.05;;
26965;SDS011;14522;52.068;4.414;2023-07-16T01:16:43;6.03;;;2.75;;
26965;SDS011;14522;52.068;4.414;2023-07-16T01:19:10;8.35;;;2.83;;
26965;SDS011;14522;52.068;4.414;2023-07-16T01:27:34;19.13;;;;;
26965;SDS011;14522;52.068;4.414;2023-07-16T01:32:07;7.57;;;2.67;;
26965;SDS011;14522;52.068;4.414;2023-07-16T01:34:34;8.13;;;3.08;;
26965;SDS011;14522;52.068;4.414;2023-07-16T01:37:01;11.15;;;2.78;;
26965;SDS011;14522;52.068;4.414;2023-07-16T01:39:28;12.50;;;3.45;;
26965;SDS011;14522;52.068;4.414;2023-07-16T01:41:55;7.28;;;2.88;;
26965;SDS011;14522;52.068;4.414;2023-07-16T01:44:22;10.90;;;4.47;;
26965;SDS011;14522;52.068;4.414;2023-07-16T01:46:51;9.75;;;3.28;;
26965;SDS011;14522;52.068;4.414;2023-07-16T01:49:20;12.88;;;3.08;;
26965;SDS011;14522;52.068;4.414;2023-07-16T01:51:46;10.32;;;3.75;;
26965;SDS011;14522;52.068;4.414;2023-07-16T01:54:12;14.52;;;4.30;;
26965;SDS011;14522;52.068;4.414;2023-07-16T01:56:39;11.18;;;3.47;;
26965;SDS011;14522;52.068;4.414;2023-07-16T01:59:05;8.43;;;2.63;;
26965;SDS011;14522;52.068;4.414;2023-07-16T02:01:32;10.48;;;3.63;;
26965;SDS011;14522;52.068;4.414;2023-07-16T02:03:58;11.57;;;3.72;;
26965;SDS011;14522;52.068;4.414;2023-07-16T02:06:24;10.98;;;3.80;;
26965;SDS011;14522;52.068;4.414;2023-07-16T02:08:51;10.27;;;3.20;;
26965;SDS011;14522;52.068;4.414;2023-07-16T02:11:17;8.77;;;2.78;;
26965;SDS011;14522;52.068;4.414;2023-07-16T02:13:44;10.20;;;3.22;;
26965;SDS011;14522;52.068;4.414;2023-07-16T02:16:10;8.02;;;3.13;;
26965;SDS011;14522;52.068;4.414;2023-07-16T02:18:37;8.32;;;3.35;;
26965;SDS011;14522;52.068;4.414;2023-07-16T02:21:03;13.40;;;4.50;;
26965;SDS011;14522;52.068;4.414;2023-07-16T02:23:29;8.13;;;2.90;;
26965;SDS011;14522;52.068;4.414;2023-07-16T02:25:56;11.02;;;3.30;;
26965;SDS011;14522;52.068;4.414;2023-07-16T02:28:22;6.75;;;3.70;;
26965;SDS011;14522;52.068;4.414;2023-07-16T02:30:49;9.18;;;3.83;;
26965;SDS011;14522;52.068;4.414;2023-07-16T02:33:16;8.85;;;3.78;;
26965;SDS011;14522;52.068;4.414;2023-07-16T02:35:46;12.23;;;4.18;;
26965;SDS011;14522;52.068;4.414;2023-07-16T02:38:12;14.05;;;3.50;;
26965;SDS011;14522;52.068;4.414;2023-07-16T02:40:42;8.57;;;3.17;;
26965;SDS011;14522;52.068;4.414;2023-07-16T02:43:10;7.78;;;3.83;;
26965;SDS011;14522;52.068;4.414;2023-07-16T02:45:36;7.32;;;3.63;;
26965;SDS011;14522;52.068;4.414;2023-07-16T02:48:02;7.53;;;4.03;;
26965;SDS011;14522;52.068;4.414;2023-07-16T02:50:29;18.15;;;4.22;;
26965;SDS011;14522;52.068;4.414;2023-07-16T02:52:55;13.57;;;4.32;;
26965;SDS011;14522;52.068;4.414;2023-07-16T02:55:22;8.75;;;3.70;;
26965;SDS011;14522;52.068;4.414;2023-07-16T02:57:48;12.45;;;4.10;;
26965;SDS011;14522;52.068;4.414;2023-07-16T03:00:15;9.90;;;3.20;;
26965;SDS011;14522;52.068;4.414;2023-07-16T03:02:41;9.98;;;3.10;;
26965;SDS011;14522;52.068;4.414;2023-07-16T03:05:08;8.55;;;3.65;;
26965;SDS011;14522;52.068;4.414;2023-07-16T03:07:34;13.23;;;3.80;;
26965;SDS011;14522;52.068;4.414;2023-07-16T03:10:00;7.05;;;2.70;;
26965;SDS011;14522;52.068;4.414;2023-07-16T03:12:27;7.13;;;3.25;;
26965;SDS011;14522;52.068;4.414;2023-07-16T03:14:53;7.45;;;3.25;;
26965;SDS011;14522;52.068;4.414;2023-07-16T03:17:20;7.78;;;2.47;;
26965;SDS011;14522;52.068;4.414;2023-07-16T03:19:48;7.63;;;2.80;;
26965;SDS011;14522;52.068;4.414;2023-07-16T03:22:14;8.50;;;2.83;;
26965;SDS011;14522;52.068;4.414;2023-07-16T03:24:41;12.77;;;2.65;;
26965;SDS011;14522;52.068;4.414;2023-07-16T03:27:07;12.88;;;3.53;;
26965;SDS011;14522;52.068;4.414;2023-07-16T03:29:44;8.32;;;2.85;;
26965;SDS011;14522;52.068;4.414;2023-07-16T03:32:10;8.20;;;2.60;;
26965;SDS011;14522;52.068;4.414;2023-07-16T03:34:37;9.00;;;2.83;;
26965;SDS011;14522;52.068;4.414;2023-07-16T03:37:03;8.32;;;2.53;;
26965;SDS011;14522;52.068;4.414;2023-07-16T03:39:30;6.00;;;2.70;;
26965;SDS011;14522;52.068;4.414;2023-07-16T03:41:56;8.75;;;2.85;;
26965;SDS011;14522;52.068;4.414;2023-07-16T03:44:23;11.88;;;2.72;;
26965;SDS011;14522;52.068;4.414;2023-07-16T03:46:49;6.28;;;3.03;;
26965;SDS011;14522;52.068;4.414;2023-07-16T03:49:16;7.10;;;2.65;;
26965;SDS011;14522;52.068;4.414;2023-07-16T03:51:42;5.28;;;3.15;;
26965;SDS011;14522;52.068;4.414;2023-07-16T03:54:09;9.38;;;3.40;;
26965;SDS011;14522;52.068;4.414;2023-07-16T03:56:35;14.98;;;3.35;;
26965;SDS011;14522;52.068;4.414;2023-07-16T03:59:02;6.90;;;2.78;;
26965;SDS011;14522;52.068;4.414;2023-07-16T04:01:28;8.07;;;3.42;;
26965;SDS011;14522;52.068;4.414;2023-07-16T04:03:55;11.65;;;3.58;;
26965;SDS011;14522;52.068;4.414;2023-07-16T04:06:21;7.82;;;3.20;;
26965;SDS011;14522;52.068;4.414;2023-07-16T04:08:48;11.35;;;3.78;;
26965;SDS011;14522;52.068;4.414;2023-07-16T04:11:14;6.53;;;3.15;;
26965;SDS011;14522;52.068;4.414;2023-07-16T04:13:40;5.10;;;2.42;;
26965;SDS011;14522;52.068;4.414;2023-07-16T04:16:07;6.38;;;2.92;;
26965;SDS011;14522;52.068;4.414;2023-07-16T04:18:33;11.60;;;3.22;;
26965;SDS011;14522;52.068;4.414;2023-07-16T04:21:00;5.13;;;2.42;;
26965;SDS011;14522;52.068;4.414;2023-07-16T04:23:26;10.75;;;3.67;;
26965;SDS011;14522;52.068;4.414;2023-07-16T04:25:53;8.52;;;3.78;;
26965;SDS011;14522;52.068;4.414;2023-07-16T04:28:21;9.60;;;3.58;;
26965;SDS011;14522;52.068;4.414;2023-07-16T04:30:48;8.02;;;3.38;;
26965;SDS011;14522;52.068;4.414;2023-07-16T04:33:14;5.32;;;2.88;;
26965;SDS011;14522;52.068;4.414;2023-07-16T04:35:41;8.88;;;4.07;;
26965;SDS011;14522;52.068;4.414;2023-07-16T04:38:07;7.97;;;2.92;;
26965;SDS011;14522;52.068;4.414;2023-07-16T04:40:34;6.90;;;3.10;;
26965;SDS011;14522;52.068;4.414;2023-07-16T04:43:00;7.30;;;3.67;;
26965;SDS011;14522;52.068;4.414;2023-07-16T04:45:27;7.75;;;3.40;;
26965;SDS011;14522;52.068;4.414;2023-07-16T04:47:53;8.18;;;3.55;;
26965;SDS011;14522;52.068;4.414;2023-07-16T04:50:20;8.20;;;3.78;;
26965;SDS011;14522;52.068;4.414;2023-07-16T04:52:46;6.97;;;3.78;;
26965;SDS011;14522;52.068;4.414;2023-07-16T04:55:12;11.82;;;3.78;;
26965;SDS011;14522;52.068;4.414;2023-07-16T04:57:39;10.18;;;3.45;;
26965;SDS011;14522;52.068;4.414;2023-07-16T05:00:06;7.85;;;3.10;;
26965;SDS011;14522;52.068;4.414;2023-07-16T05:02:32;9.38;;;3.03;;
26965;SDS011;14522;52.068;4.414;2023-07-16T05:04:59;8.82;;;3.45;;
26965;SDS011;14522;52.068;4.414;2023-07-16T05:07:25;9.70;;;3.67;;
26965;SDS011;14522;52.068;4.414;2023-07-16T05:09:52;9.02;;;3.40;;
26965;SDS011;14522;52.068;4.414;2023-07-16T05:12:18;7.25;;;3.40;;
26965;SDS011;14522;52.068;4.414;2023-07-16T05:14:45;6.95;;;2.75;;
26965;SDS011;14522;52.068;4.414;2023-07-16T05:17:12;6.20;;;2.97;;
26965;SDS011;14522;52.068;4.414;2023-07-16T05:19:39;7.72;;;3.22;;
26965;SDS011;14522;52.068;4.414;2023-07-16T05:22:08;7.53;;;2.45;;
26965;SDS011;14522;52.068;4.414;2023-07-16T05:24:34;8.18;;;3.45;;
26965;SDS011;14522;52.068;4.414;2023-07-16T05:27:01;5.22;;;2.60;;
26965;SDS011;14522;52.068;4.414;2023-07-16T05:29:27;7.68;;;2.97;;
26965;SDS011;14522;52.068;4.414;2023-07-16T05:31:54;7.30;;;2.90;;
26965;SDS011;14522;52.068;4.414;2023-07-16T05:34:20;8.23;;;3.67;;
26965;SDS011;14522;52.068;4.414;2023-07-16T05:36:47;12.48;;;3.58;;
26965;SDS011;14522;52.068;4.414;2023-07-16T05:39:13;11.70;;;3.10;;
26965;SDS011;14522;52.068;4.414;2023-07-16T05:41:40;8.98;;;3.53;;
26965;SDS011;14522;52.068;4.414;2023-07-16T05:44:06;8.93;;;3.75;;
26965;SDS011;14522;52.068;4.414;2023-07-16T05:46:33;8.85;;;3.03;;
26965;SDS011;14522;52.068;4.414;2023-07-16T05:48:59;6.20;;;2.80;;
26965;SDS011;14522;52.068;4.414;2023-07-16T05:51:26;8.63;;;3.25;;
26965;SDS011;14522;52.068;4.414;2023-07-16T05:53:52;4.50;;;2.80;;
26965;SDS011;14522;52.068;4.414;2023-07-16T05:56:19;9.18;;;3.38;;
26965;SDS011;14522;52.068;4.414;2023-07-16T05:58:45;12.07;;;4.18;;
26965;SDS011;14522;52.068;4.414;2023-07-16T06:01:12;6.55;;;3.05;;
26965;SDS011;14522;52.068;4.414;2023-07-16T06:03:38;10.60;;;3.45;;
26965;SDS011;14522;52.068;4.414;2023-07-16T06:06:05;12.23;;;3.70;;
26965;SDS011;14522;52.068;4.414;2023-07-16T06:08:31;10.85;;;3.75;;
26965;SDS011;14522;52.068;4.414;2023-07-16T06:10:57;9.95;;;3.80;;
26965;SDS011;14522;52.068;4.414;2023-07-16T06:13:24;6.20;;;2.88;;
26965;SDS011;14522;52.068;4.414;2023-07-16T06:15:50;10.38;;;3.63;;
26965;SDS011;14522;52.068;4.414;2023-07-16T06:18:17;7.60;;;3.13;;
26965;SDS011;14522;52.068;4.414;2023-07-16T06:20:47;9.57;;;3.17;;
26965;SDS011;14522;52.068;4.414;2023-07-16T06:23:13;11.63;;;4.10;;
26965;SDS011;14522;52.068;4.414;2023-07-16T06:25:42;9.05;;;3.80;;
26965;SDS011;14522;52.068;4.414;2023-07-16T06:28:14;13.25;;;4.22;;
26965;SDS011;14522;52.068;4.414;2023-07-16T06:30:41;9.00;;;3.10;;
26965;SDS011;14522;52.068;4.414;2023-07-16T06:33:07;9.93;;;3.42;;
26965;SDS011;14522;52.068;4.414;2023-07-16T06:35:34;9.20;;;4.07;;
26965;SDS011;14522;52.068;4.414;2023-07-16T06:38:00;5.88;;;3.30;;
26965;SDS011;14522;52.068;4.414;2023-07-16T06:40:28;7.20;;;3.45;;
26965;SDS011;14522;52.068;4.414;2023-07-16T06:42:54;13.02;;;3.85;;
26965;SDS011;14522;52.068;4.414;2023-07-16T06:45:20;8.55;;;3.28;;
26965;SDS011;14522;52.068;4.414;2023-07-16T06:47:47;9.30;;;3.15;;
26965;SDS011;14522;52.068;4.414;2023-07-16T06:50:14;7.50;;;3.97;;
26965;SDS011;14522;52.068;4.414;2023-07-16T06:52:40;7.82;;;3.97;;
26965;SDS011;14522;52.068;4.414;2023-07-16T06:55:07;12.18;;;4.25;;
26965;SDS011;14522;52.068;4.414;2023-07-16T06:57:33;9.65;;;3.35;;
26965;SDS011;14522;52.068;4.414;2023-07-16T07:00:00;5.97;;;2.88;;
26965;SDS011;14522;52.068;4.414;2023-07-16T07:02:26;11.95;;;4.63;;
26965;SDS011;14522;52.068;4.414;2023-07-16T07:04:53;12.90;;;3.85;;
26965;SDS011;14522;52.068;4.414;2023-07-16T07:07:19;9.82;;;3.03;;
26965;SDS011;14522;52.068;4.414;2023-07-16T07:09:49;13.00;;;3.92;;
26965;SDS011;14522;52.068;4.414;2023-07-16T07:12:15;10.40;;;3.75;;
26965;SDS011;14522;52.068;4.414;2023-07-16T07:14:42;6.70;;;3.35;;
26965;SDS011;14522;52.068;4.414;2023-07-16T07:17:08;8.60;;;3.63;;
26965;SDS011;14522;52.068;4.414;2023-07-16T07:19:34;16.88;;;3.78;;
26965;SDS011;14522;52.068;4.414;2023-07-16T07:22:01;11.55;;;4.25;;
26965;SDS011;14522;52.068;4.414;2023-07-16T07:24:27;9.15;;;4.60;;
26965;SDS011;14522;52.068;4.414;2023-07-16T07:26:54;9.27;;;3.90;;
26965;SDS011;14522;52.068;4.414;2023-07-16T07:29:20;8.23;;;3.65;;
26965;SDS011;14522;52.068;4.414;2023-07-16T07:31:47;8.90;;;3.63;;
26965;SDS011;14522;52.068;4.414;2023-07-16T07:34:13;10.82;;;4.28;;
26965;SDS011;14522;52.068;4.414;2023-07-16T07:36:40;9.05;;;3.75;;
26965;SDS011;14522;52.068;4.414;2023-07-16T07:39:07;9.10;;;3.67;;
26965;SDS011;14522;52.068;4.414;2023-07-16T07:41:33;4.45;;;2.90;;
26965;SDS011;14522;52.068;4.414;2023-07-16T07:43:59;8.95;;;3.55;;
26965;SDS011;14522;52.068;4.414;2023-07-16T07:46:26;9.43;;;4.03;;
26965;SDS011;14522;52.068;4.414;2023-07-16T07:48:52;8.93;;;3.50;;
26965;SDS011;14522;52.068;4.414;2023-07-16T07:51:20;12.20;;;3.90;;
26965;SDS011;14522;52.068;4.414;2023-07-16T07:53:46;11.65;;;3.40;;
26965;SDS011;14522;52.068;4.414;2023-07-16T07:56:13;9.73;;;3.28;;
26965;SDS011;14522;52.068;4.414;2023-07-16T07:58:39;7.45;;;2.75;;
26965;SDS011;14522;52.068;4.414;2023-07-16T08:01:07;7.43;;;3.22;;
26965;SDS011;14522;52.068;4.414;2023-07-16T08:03:33;7.22;;;2.85;;
26965;SDS011;14522;52.068;4.414;2023-07-16T08:06:00;6.03;;;2.75;;
26965;SDS011;14522;52.068;4.414;2023-07-16T08:08:27;8.52;;;3.35;;
26965;SDS011;14522;52.068;4.414;2023-07-16T08:10:54;7.55;;;2.95;;
26965;SDS011;14522;52.068;4.414;2023-07-16T08:13:20;7.22;;;2.63;;
26965;SDS011;14522;52.068;4.414;2023-07-16T08:15:47;10.68;;;3.30;;
26965;SDS011;14522;52.068;4.414;2023-07-16T08:18:16;9.18;;;3.40;;
26965;SDS011;14522;52.068;4.414;2023-07-16T08:20:42;7.03;;;2.63;;
26965;SDS011;14522;52.068;4.414;2023-07-16T08:23:09;6.93;;;2.92;;
26965;SDS011;14522;52.068;4.414;2023-07-16T08:25:36;9.10;;;3.55;;
26965;SDS011;14522;52.068;4.414;2023-07-16T08:28:02;11.85;;;3.90;;
26965;SDS011;14522;52.068;4.414;2023-07-16T08:30:29;7.53;;;3.30;;
26965;SDS011;14522;52.068;4.414;2023-07-16T08:32:55;8.60;;;3.60;;
26965;SDS011;14522;52.068;4.414;2023-07-16T08:35:22;10.30;;;3.40;;
26965;SDS011;14522;52.068;4.414;2023-07-16T08:37:48;9.45;;;2.88;;
26965;SDS011;14522;52.068;4.414;2023-07-16T08:40:15;9.77;;;3.70;;
26965;SDS011;14522;52.068;4.414;2023-07-16T08:42:43;11.65;;;3.58;;
26965;SDS011;14522;52.068;4.414;2023-07-16T08:45:10;8.32;;;3.40;;
26965;SDS011;14522;52.068;4.414;2023-07-16T08:47:37;10.13;;;3.88;;
26965;SDS011;14522;52.068;4.414;2023-07-16T08:50:03;8.98;;;3.10;;
26965;SDS011;14522;52.068;4.414;2023-07-16T08:52:30;10.77;;;3.97;;
26965;SDS011;14522;52.068;4.414;2023-07-16T08:54:57;11.10;;;4.25;;
26965;SDS011;14522;52.068;4.414;2023-07-16T08:57:23;8.52;;;3.47;;
26965;SDS011;14522;52.068;4.414;2023-07-16T08:59:51;8.20;;;3.30;;
26965;SDS011;14522;52.068;4.414;2023-07-16T09:02:17;6.18;;;2.65;;
26965;SDS011;14522;52.068;4.414;2023-07-16T09:04:48;5.50;;;2.70;;
26965;SDS011;14522;52.068;4.414;2023-07-16T09:07:15;6.65;;;3.30;;
26965;SDS011;14522;52.068;4.414;2023-07-16T09:09:41;8.70;;;2.90;;
26965;SDS011;14522;52.068;4.414;2023-07-16T09:12:11;9.98;;;3.38;;
26965;SDS011;14522;52.068;4.414;2023-07-16T09:14:40;10.18;;;3.20;;
26965;SDS011;14522;52.068;4.414;2023-07-16T09:17:07;8.82;;;3.50;;
26965;SDS011;14522;52.068;4.414;2023-07-16T09:19:33;12.63;;;3.42;;
26965;SDS011;14522;52.068;4.414;2023-07-16T09:22:03;8.07;;;2.95;;
26965;SDS011;14522;52.068;4.414;2023-07-16T09:24:29;10.07;;;3.42;;
26965;SDS011;14522;52.068;4.414;2023-07-16T09:26:56;8.93;;;3.05;;
26965;SDS011;14522;52.068;4.414;2023-07-16T09:29:24;6.60;;;2.83;;
26965;SDS011;14522;52.068;4.414;2023-07-16T09:32:00;8.27;;;3.08;;
26965;SDS011;14522;52.068;4.414;2023-07-16T09:34:29;9.20;;;3.20;;
26965;SDS011;14522;52.068;4.414;2023-07-16T09:36:56;10.75;;;2.63;;
26965;SDS011;14522;52.068;4.414;2023-07-16T09:39:22;7.43;;;2.60;;
26965;SDS011;14522;52.068;4.414;2023-07-16T09:41:49;6.32;;;2.60;;
26965;SDS011;14522;52.068;4.414;2023-07-16T09:44:16;6.57;;;2.50;;
26965;SDS011;14522;52.068;4.414;2023-07-16T09:46:43;8.73;;;2.45;;
26965;SDS011;14522;52.068;4.414;2023-07-16T09:49:10;16.42;;;4.00;;
26965;SDS011;14522;52.068;4.414;2023-07-16T09:51:38;8.70;;;2.78;;
26965;SDS011;14522;52.068;4.414;2023-07-16T09:54:05;11.60;;;2.85;;
26965;SDS011;14522;52.068;4.414;2023-07-16T09:56:43;10.63;;;3.00;;
26965;SDS011;14522;52.068;4.414;2023-07-16T09:59:14;8.68;;;2.90;;
26965;SDS011;14522;52.068;4.414;2023-07-16T10:01:41;10.80;;;2.60;;
26965;SDS011;14522;52.068;4.414;2023-07-16T10:04:14;10.07;;;2.80;;
26965;SDS011;14522;52.068;4.414;2023-07-16T10:07:03;8.55;;;2.47;;
26965;SDS011;14522;52.068;4.414;2023-07-16T10:12:15;6.65;;;2.10;;
26965;SDS011;14522;52.068;4.414;2023-07-16T10:14:43;6.50;;;1.98;;
26965;SDS011;14522;52.068;4.414;2023-07-16T10:17:14;7.80;;;2.55;;
26965;SDS011;14522;52.068;4.414;2023-07-16T10:22:14;10.00;;;3.35;;
26965;SDS011;14522;52.068;4.414;2023-07-16T10:24:41;8.60;;;2.40;;
26965;SDS011;14522;52.068;4.414;2023-07-16T10:27:07;6.40;;;2.78;;
26965;SDS011;14522;52.068;4.414;2023-07-16T10:29:34;7.50;;;2.05;;
26965;SDS011;14522;52.068;4.414;2023-07-16T10:32:02;7.80;;;1.92;;
26965;SDS011;14522;52.068;4.414;2023-07-16T10:34:31;13.10;;;3.25;;
26965;SDS011;14522;52.068;4.414;2023-07-16T10:36:57;8.27;;;2.10;;
26965;SDS011;14522;52.068;4.414;2023-07-16T10:39:23;7.32;;;1.92;;
26965;SDS011;14522;52.068;4.414;2023-07-16T10:41:50;7.85;;;2.05;;
26965;SDS011;14522;52.068;4.414;2023-07-16T10:44:16;4.90;;;1.55;;
26965;SDS011;14522;52.068;4.414;2023-07-16T10:46:43;9.52;;;1.80;;
26965;SDS011;14522;52.068;4.414;2023-07-16T10:49:09;6.25;;;1.85;;
26965;SDS011;14522;52.068;4.414;2023-07-16T10:51:36;7.72;;;1.55;;
26965;SDS011;14522;52.068;4.414;2023-07-16T10:54:02;9.23;;;2.40;;
26965;SDS011;14522;52.068;4.414;2023-07-16T10:56:37;13.05;;;2.20;;
26965;SDS011;14522;52.068;4.414;2023-07-16T10:59:04;8.73;;;1.60;;
26965;SDS011;14522;52.068;4.414;2023-07-16T11:01:32;9.63;;;1.85;;
26965;SDS011;14522;52.068;4.414;2023-07-16T11:04:06;10.48;;;2.05;;
26965;SDS011;14522;52.068;4.414;2023-07-16T11:06:32;7.20;;;1.75;;
26965;SDS011;14522;52.068;4.414;2023-07-16T11:09:08;8.27;;;2.00;;
26965;SDS011;14522;52.068;4.414;2023-07-16T11:11:35;9.48;;;2.45;;
26965;SDS011;14522;52.068;4.414;2023-07-16T11:14:05;7.13;;;1.30;;
26965;SDS011;14522;52.068;4.414;2023-07-16T11:16:35;7.55;;;1.60;;
26965;SDS011;14522;52.068;4.414;2023-07-16T11:19:04;7.05;;;1.40;;
26965;SDS011;14522;52.068;4.414;2023-07-16T11:21:34;5.35;;;1.30;;
26965;SDS011;14522;52.068;4.414;2023-07-16T11:24:08;5.15;;;1.42;;
26965;SDS011;14522;52.068;4.414;2023-07-16T11:26:35;4.65;;;1.10;;
26965;SDS011;14522;52.068;4.414;2023-07-16T11:29:11;7.60;;;1.55;;
26965;SDS011;14522;52.068;4.414;2023-07-16T11:31:38;5.55;;;1.10;;
26965;SDS011;14522;52.068;4.414;2023-07-16T11:34:05;8.07;;;1.58;;
26965;SDS011;14522;52.068;4.414;2023-07-16T11:36:33;5.47;;;1.27;;
26965;SDS011;14522;52.068;4.414;2023-07-16T11:39:02;7.53;;;1.45;;
26965;SDS011;14522;52.068;4.414;2023-07-16T11:41:29;7.47;;;1.52;;
26965;SDS011;14522;52.068;4.414;2023-07-16T11:43:59;7.38;;;1.20;;
26965;SDS011;14522;52.068;4.414;2023-07-16T11:46:25;9.05;;;0.90;;
26965;SDS011;14522;52.068;4.414;2023-07-16T11:48:51;6.90;;;1.40;;
26965;SDS011;14522;52.068;4.414;2023-07-16T11:51:18;7.45;;;1.42;;
26965;SDS011;14522;52.068;4.414;2023-07-16T11:53:44;8.30;;;1.17;;
26965;SDS011;14522;52.068;4.414;2023-07-16T11:56:11;7.13;;;1.20;;
26965;SDS011;14522;52.068;4.414;2023-07-16T11:58:37;7.25;;;1.08;;
26965;SDS011;14522;52.068;4.414;2023-07-16T12:01:04;8.45;;;1.58;;
26965;SDS011;14522;52.068;4.414;2023-07-16T12:03:30;5.05;;;1.38;;
26965;SDS011;14522;52.068;4.414;2023-07-16T12:05:57;10.23;;;1.73;;
26965;SDS011;14522;52.068;4.414;2023-07-16T12:08:23;9.25;;;1.48;;
26965;SDS011;14522;52.068;4.414;2023-07-16T12:10:49;7.57;;;1.77;;
26965;SDS011;14522;52.068;4.414;2023-07-16T12:13:16;6.78;;;1.65;;
26965;SDS011;14522;52.068;4.414;2023-07-16T12:15:42;7.30;;;1.30;;
26965;SDS011;14522;52.068;4.414;2023-07-16T12:18:09;5.57;;;2.03;;
26965;SDS011;14522;52.068;4.414;2023-07-16T12:20:35;11.10;;;1.30;;
26965;SDS011;14522;52.068;4.414;2023-07-16T12:23:06;9.73;;;1.67;;
26965;SDS011;14522;52.068;4.414;2023-07-16T12:25:34;13.77;;;1.70;;
26965;SDS011;14522;52.068;4.414;2023-07-16T12:28:00;13.07;;;2.00;;
26965;SDS011;14522;52.068;4.414;2023-07-16T12:30:28;10.35;;;2.08;;
26965;SDS011;14522;52.068;4.414;2023-07-16T12:32:54;12.48;;;1.70;;
26965;SDS011;14522;52.068;4.414;2023-07-16T12:35:21;7.93;;;1.67;;
26965;SDS011;14522;52.068;4.414;2023-07-16T12:37:47;10.00;;;1.73;;
26965;SDS011;14522;52.068;4.414;2023-07-16T12:40:14;5.18;;;1.02;;
26965;SDS011;14522;52.068;4.414;2023-07-16T12:42:40;10.02;;;1.80;;
26965;SDS011;14522;52.068;4.414;2023-07-16T12:45:07;9.35;;;1.63;;
26965;SDS011;14522;52.068;4.414;2023-07-16T12:47:33;8.02;;;1.63;;
26965;SDS011;14522;52.068;4.414;2023-07-16T12:50:00;11.73;;;1.40;;
26965;SDS011;14522;52.068;4.414;2023-07-16T12:52:26;8.45;;;1.30;;
26965;SDS011;14522;52.068;4.414;2023-07-16T12:54:53;8.60;;;1.60;;
26965;SDS011;14522;52.068;4.414;2023-07-16T12:57:23;8.52;;;1.40;;
26965;SDS011;14522;52.068;4.414;2023-07-16T12:59:50;9.77;;;1.65;;
26965;SDS011;14522;52.068;4.414;2023-07-16T13:02:16;9.75;;;1.40;;
26965;SDS011;14522;52.068;4.414;2023-07-16T13:04:42;8.77;;;1.50;;
26965;SDS011;14522;52.068;4.414;2023-07-16T13:07:09;13.43;;;1.73;;
26965;SDS011;14522;52.068;4.414;2023-07-16T13:09:35;5.95;;;1.40;;
26965;SDS011;14522;52.068;4.414;2023-07-16T13:12:02;13.15;;;1.77;;
26965;SDS011;14522;52.068;4.414;2023-07-16T13:14:29;10.63;;;2.35;;
26965;SDS011;14522;52.068;4.414;2023-07-16T13:16:55;8.93;;;2.20;;
26965;SDS011;14522;52.068;4.414;2023-07-16T13:19:22;15.57;;;1.92;;
26965;SDS011;14522;52.068;4.414;2023-07-16T13:21:48;9.40;;;1.88;;
26965;SDS011;14522;52.068;4.414;2023-07-16T13:24:15;8.93;;;1.92;;
26965;SDS011;14522;52.068;4.414;2023-07-16T13:26:41;14.85;;;2.13;;
26965;SDS011;14522;52.068;4.414;2023-07-16T13:29:10;8.30;;;1.83;;
26965;SDS011;14522;52.068;4.414;2023-07-16T13:31:36;14.88;;;2.00;;
26965;SDS011;14522;52.068;4.414;2023-07-16T13:34:02;9.60;;;1.50;;
26965;SDS011;14522;52.068;4.414;2023-07-16T13:36:29;15.63;;;2.60;;
26965;SDS011;14522;52.068;4.414;2023-07-16T13:38:55;13.38;;;2.00;;
26965;SDS011;14522;52.068;4.414;2023-07-16T13:41:22;9.80;;;1.88;;
26965;SDS011;14522;52.068;4.414;2023-07-16T13:43:48;10.82;;;1.98;;
26965;SDS011;14522;52.068;4.414;2023-07-16T13:46:15;14.25;;;2.28;;
26965;SDS011;14522;52.068;4.414;2023-07-16T13:48:41;11.85;;;2.00;;
26965;SDS011;14522;52.068;4.414;2023-07-16T13:51:23;10.73;;;1.85;;
26965;SDS011;14522;52.068;4.414;2023-07-16T13:53:49;10.63;;;2.22;;
26965;SDS011;14522;52.068;4.414;2023-07-16T13:56:16;12.50;;;2.10;;
26965;SDS011;14522;52.068;4.414;2023-07-16T13:58:43;10.10;;;2.10;;
26965;SDS011;14522;52.068;4.414;2023-07-16T14:01:09;9.02;;;1.40;;
26965;SDS011;14522;52.068;4.414;2023-07-16T14:03:36;4.57;;;1.20;;
26965;SDS011;14522;52.068;4.414;2023-07-16T14:06:02;12.20;;;1.90;;
26965;SDS011;14522;52.068;4.414;2023-07-16T14:08:29;10.60;;;2.13;;
26965;SDS011;14522;52.068;4.414;2023-07-16T14:10:56;9.52;;;1.77;;
26965;SDS011;14522;52.068;4.414;2023-07-16T14:13:23;7.15;;;1.70;;
26965;SDS011;14522;52.068;4.414;2023-07-16T14:15:49;12.88;;;2.05;;
26965;SDS011;14522;52.068;4.414;2023-07-16T14:18:16;11.52;;;1.70;;
26965;SDS011;14522;52.068;4.414;2023-07-16T14:20:42;13.23;;;1.88;;
26965;SDS011;14522;52.068;4.414;2023-07-16T14:23:09;12.48;;;2.10;;
26965;SDS011;14522;52.068;4.414;2023-07-16T14:25:35;13.88;;;2.05;;
26965;SDS011;14522;52.068;4.414;2023-07-16T14:28:02;8.73;;;1.75;;
26965;SDS011;14522;52.068;4.414;2023-07-16T14:30:28;13.27;;;2.15;;
26965;SDS011;14522;52.068;4.414;2023-07-16T14:32:55;11.15;;;2.35;;
26965;SDS011;14522;52.068;4.414;2023-07-16T14:35:22;7.88;;;1.70;;
26965;SDS011;14522;52.068;4.414;2023-07-16T14:38:01;7.90;;;1.90;;
26965;SDS011;14522;52.068;4.414;2023-07-16T14:40:27;11.02;;;1.67;;
26965;SDS011;14522;52.068;4.414;2023-07-16T14:42:54;9.18;;;1.83;;
26965;SDS011;14522;52.068;4.414;2023-07-16T14:45:20;16.13;;;2.10;;
26965;SDS011;14522;52.068;4.414;2023-07-16T14:47:47;12.13;;;2.58;;
26965;SDS011;14522;52.068;4.414;2023-07-16T14:50:13;11.88;;;2.45;;
26965;SDS011;14522;52.068;4.414;2023-07-16T14:52:40;10.50;;;2.40;;
26965;SDS011;14522;52.068;4.414;2023-07-16T14:55:06;9.40;;;2.00;;